KDMN/DMN METAR and TAF weather

Enter ICAO airport designator
Station Type Date Time Source
KDMN METAR 2020/11/27 01:53 UTC NOAA

KDMN 270153Z AUTO 32007KT 10SM CLR 11/M08 A2998 RMK AO2 SLP136 T01061083


Station Type Date Time Source
KDMN Decoded METAR 2020/11/27 01:53 UTC NOAA

DEMING MUNICIPAL AIRPORT, NM, United States (KDMN) 32-16N 107-43W 1311M
Nov 26, 2020 - 08:53 PM EST / 2020.11.27 0153 UTC
Wind: from the NW (320 degrees) at 8 MPH (7 KT):0
Visibility: 10 mile(s):0
Sky conditions: clear
Temperature: 51.1 F (10.6 C)
Dew Point: 17.1 F (-8.3 C)
Relative Humidity: 25%
Pressure (altimeter): 29.98 in. Hg (1015 hPa)
ob: KDMN 270153Z AUTO 32007KT 10SM CLR 11/M08 A2998 RMK AO2 SLP136 T01061083
cycle: 2

Station Type Date Time Source
KDMN TAF 2020/11/26 18:39 UTC NOAA

TAF KDMN 261737Z 2618/2718 27007KT P6SM SKC
FM261900 26010G16KT P6SM SCT250
FM270300 26007KT P6SM SCT250

Example: see airport list